aviador You're here:

LYNI Decoded Metar

NIS in SERBIA
Report Time2017-12-11 05:00:00
UTC Time2017-12-11 05:32:47
Flight Rules vfr VFR
Wind150° at 06 kt
W.Decomp.*RWY 11: 4.8 kt HW 3.6 kt RCW
W.Rank150° ranks 24
Current wind is above 150° avg. (3.8)
Visibility9999 m
Phenomena:N/A
Clouds:N/A
Expected CloudBase > 4,000 ft AGL from Temp-Dew spread
CeilingNone
Temp06°C (ISA -8)
Dew Point-4°C (49% RH)
AAT1.3°C
QNH1015 hPa
Density Alt-262 ft
Elevation663 ft
Report Wrong Elevation
Raw Report
LYNI 110500Z 15006KT 110V200 CAVOK 06/M04 Q1015 R11///////=

Extra information for LYNI:More info

Metar Taf Metar & Taf Last 4 Metars F.Rules Stats Wind Profile Meteogram Temp Stats Airport Information Weather charts Add Link Nearby VenuesMetar ALERT Operation Metar Decoded Social comments